KGEY/GEY METAR and TAF weather

Enter ICAO airport designator
Station Type Date Time Source
KGEY METAR 2021/07/29 01:53 UTC NOAA

KGEY 290153Z AUTO 30015G23KT 6SM HZ CLR 30/08 A3016 RMK AO2 PK WND 33028/0054 SLP164 T03000078


Station Type Date Time Source
KGEY Decoded METAR 2021/07/29 01:53 UTC NOAA

SOUTH BIG HORN COUNTY AIRPORT , WY, United States (KGEY) 44-31N 108-05W 1191M
Jul 28, 2021 - 09:53 PM EDT / 2021.07.29 0153 UTC
Wind: from the WNW (300 degrees) at 17 MPH (15 KT) gusting to 26 MPH (23 KT):0
Visibility: 6 mile(s):0
Sky conditions: clear
Weather: haze
Temperature: 86.0 F (30.0 C)
Dew Point: 46.0 F (7.8 C)
Relative Humidity: 24%
Pressure (altimeter): 30.16 in. Hg (1021 hPa)
ob: KGEY 290153Z AUTO 30015G23KT 6SM HZ CLR 30/08 A3016 RMK AO2 PK WND 33028/0054 SLP164 T03000078
cycle: 2

Station Type Date Time Source
KGEY TAF UTC NOAA

Error!

Example: see airport list